createdAt,value
2023-05-05T00:00:55.727Z,11.81
2023-05-05T00:06:51.926Z,11.20
2023-05-05T00:09:20.139Z,11.53
2023-05-05T00:11:47.891Z,11.65
2023-05-05T00:14:15.768Z,11.35
2023-05-05T00:16:44.608Z,11.51
2023-05-05T00:19:15.887Z,11.07
2023-05-05T00:21:46.573Z,10.53
2023-05-05T00:24:14.359Z,10.71
2023-05-05T00:26:43.651Z,10.65
2023-05-05T00:29:18.629Z,11.20
2023-05-05T00:31:50.498Z,10.68
2023-05-05T00:34:19.551Z,10.62
2023-05-05T00:36:48.678Z,11.13
2023-05-05T00:39:31.095Z,10.93
2023-05-05T00:42:02.480Z,11.19
2023-05-05T00:44:49.686Z,10.55
2023-05-05T00:47:24.901Z,10.56
2023-05-05T00:50:01.970Z,10.42
2023-05-05T00:52:44.874Z,10.05
2023-05-05T00:55:20.722Z,10.13
2023-05-05T00:57:48.855Z,9.75
2023-05-05T01:00:17.131Z,9.90
2023-05-05T01:02:45.077Z,10.00
2023-05-05T01:05:13.964Z,9.91
2023-05-05T01:07:48.700Z,9.83
2023-05-05T01:10:28.850Z,9.51
2023-05-05T01:13:19.007Z,9.93
2023-05-05T01:16:15.880Z,10.25
2023-05-05T01:18:53.354Z,10.67
2023-05-05T01:21:55.723Z,9.91
2023-05-05T01:24:53.082Z,10.13
2023-05-05T01:27:31.642Z,10.01
2023-05-05T01:30:35.162Z,9.74
2023-05-05T01:33:07.967Z,9.59
2023-05-05T01:35:45.233Z,9.20
2023-05-05T01:38:14.372Z,9.80
2023-05-05T01:40:45.610Z,9.89
2023-05-05T01:43:14.106Z,9.63
2023-05-05T01:45:56.943Z,9.18
2023-05-05T01:48:33.476Z,9.25
2023-05-05T01:51:04.630Z,9.24
2023-05-05T01:53:46.070Z,9.33
2023-05-05T01:56:25.735Z,9.04
2023-05-05T01:59:00.794Z,9.04
2023-05-05T02:01:39.385Z,9.26
2023-05-05T02:04:23.012Z,9.41
2023-05-05T02:06:54.297Z,9.01
2023-05-05T02:09:43.789Z,9.20
2023-05-05T02:12:25.388Z,9.67
2023-05-05T02:14:55.652Z,9.47
2023-05-05T02:17:51.335Z,9.47
2023-05-05T02:20:37.329Z,9.86
2023-05-05T02:23:21.321Z,10.19
2023-05-05T02:25:54.773Z,10.38
2023-05-05T02:28:53.720Z,10.66
2023-05-05T02:32:00.062Z,10.23
2023-05-05T02:34:28.631Z,9.44
2023-05-05T02:37:01.952Z,10.49
2023-05-05T02:40:01.301Z,10.27
2023-05-05T02:42:30.328Z,9.96
2023-05-05T02:44:59.616Z,10.12
2023-05-05T02:47:38.007Z,10.17
2023-05-05T02:50:07.267Z,9.51
2023-05-05T02:52:36.712Z,9.93
2023-05-05T02:55:07.359Z,10.18
2023-05-05T02:58:21.254Z,9.55
2023-05-05T03:01:28.512Z,9.25
2023-05-05T03:04:01.184Z,9.66
2023-05-05T03:06:32.170Z,9.75
2023-05-05T03:09:09.103Z,9.24
2023-05-05T03:12:03.461Z,9.13
2023-05-05T03:14:46.083Z,9.11
2023-05-05T03:17:20.039Z,8.94
2023-05-05T03:19:54.333Z,9.15
2023-05-05T03:22:22.879Z,9.37
2023-05-05T03:25:12.957Z,8.85
2023-05-05T03:27:45.971Z,8.94
2023-05-05T03:30:14.900Z,8.65
2023-05-05T03:32:49.180Z,9.33
2023-05-05T03:35:19.450Z,9.35
2023-05-05T03:37:50.538Z,8.95
2023-05-05T03:40:18.616Z,9.15
2023-05-05T03:42:48.526Z,9.03
2023-05-05T03:45:23.256Z,9.27
2023-05-05T03:48:01.207Z,9.15
2023-05-05T03:51:01.912Z,9.21
2023-05-05T03:53:39.732Z,9.98
2023-05-05T03:56:12.746Z,9.05
2023-05-05T04:01:23.792Z,9.20
2023-05-05T04:03:53.999Z,9.68
2023-05-05T04:06:32.382Z,9.70
2023-05-05T04:09:05.903Z,9.93
2023-05-05T04:11:34.287Z,10.17
2023-05-05T04:14:23.943Z,10.00
2023-05-05T04:16:55.477Z,10.11
2023-05-05T04:19:44.206Z,10.61
2023-05-05T04:22:12.349Z,11.36
2023-05-05T04:24:42.175Z,10.71
2023-05-05T04:27:13.457Z,11.30
2023-05-05T04:29:42.302Z,10.85
2023-05-05T04:32:12.782Z,11.49
2023-05-05T04:35:01.433Z,11.64
2023-05-05T04:37:33.255Z,11.82
2023-05-05T04:40:01.411Z,11.73
2023-05-05T04:42:32.922Z,11.93
2023-05-05T04:45:01.186Z,11.80
2023-05-05T04:47:45.733Z,12.49
2023-05-05T04:50:24.616Z,12.57
2023-05-05T04:53:08.694Z,12.76
2023-05-05T04:55:40.601Z,13.12
2023-05-05T04:58:21.794Z,13.48
2023-05-05T05:00:57.753Z,13.58
2023-05-05T05:06:44.363Z,13.94
2023-05-05T05:12:43.320Z,15.86
2023-05-05T05:15:46.531Z,16.10
2023-05-05T05:21:32.020Z,16.84
2023-05-05T05:27:27.673Z,17.08
2023-05-05T05:30:03.607Z,17.73
2023-05-05T05:32:53.604Z,17.32
2023-05-05T05:35:22.135Z,17.91
2023-05-05T05:37:53.365Z,18.83
2023-05-05T05:40:21.627Z,19.05
2023-05-05T05:42:50.780Z,19.94
2023-05-05T05:45:18.639Z,19.60
2023-05-05T05:47:47.474Z,19.53
2023-05-05T05:50:15.537Z,19.62
2023-05-05T05:52:43.634Z,20.24
2023-05-05T05:57:57.520Z,20.42
2023-05-05T06:00:30.939Z,19.83
2023-05-05T06:03:02.420Z,19.07
2023-05-05T06:05:44.727Z,18.87
2023-05-05T06:08:15.990Z,20.34
2023-05-05T06:11:25.918Z,20.17
2023-05-05T06:14:06.978Z,20.12
2023-05-05T06:16:41.486Z,20.03
2023-05-05T06:19:12.686Z,19.73
2023-05-05T06:21:43.627Z,20.29
2023-05-05T06:24:28.566Z,20.85
2023-05-05T06:26:57.096Z,20.95
2023-05-05T06:29:26.393Z,20.77
2023-05-05T06:31:58.526Z,20.77
2023-05-05T06:34:27.258Z,19.99
2023-05-05T06:36:55.843Z,20.00
2023-05-05T06:39:26.730Z,20.87
2023-05-05T06:41:54.958Z,19.89
2023-05-05T06:44:22.802Z,20.01
2023-05-05T06:46:51.936Z,20.34
2023-05-05T06:49:20.200Z,20.63
2023-05-05T06:51:49.630Z,21.21
2023-05-05T06:54:17.914Z,21.44
2023-05-05T06:56:46.909Z,20.18
2023-05-05T06:59:14.650Z,20.93
2023-05-05T07:01:42.706Z,20.86
2023-05-05T07:04:11.604Z,20.89
2023-05-05T07:06:46.654Z,20.36
2023-05-05T07:09:17.213Z,21.31
2023-05-05T07:11:46.654Z,19.95
2023-05-05T07:14:18.972Z,20.34
2023-05-05T07:16:46.870Z,20.72
2023-05-05T07:19:17.952Z,20.55
2023-05-05T07:21:47.549Z,21.14
2023-05-05T07:24:15.724Z,21.08
2023-05-05T07:26:53.369Z,21.14
2023-05-05T07:29:21.558Z,21.24
2023-05-05T07:31:52.966Z,21.73
2023-05-05T07:34:21.205Z,21.31
2023-05-05T07:36:52.161Z,23.41
2023-05-05T07:39:24.167Z,21.92
2023-05-05T07:41:57.192Z,21.92
2023-05-05T07:44:24.981Z,23.30
2023-05-05T07:46:53.261Z,22.63
2023-05-05T07:49:22.177Z,22.84
2023-05-05T07:51:50.558Z,23.34
2023-05-05T07:54:25.870Z,24.65
2023-05-05T07:56:55.543Z,23.98
2023-05-05T07:59:27.753Z,22.97
2023-05-05T08:01:57.199Z,22.53
2023-05-05T08:04:25.660Z,22.58
2023-05-05T08:07:13.187Z,23.56
2023-05-05T08:09:44.116Z,23.83
2023-05-05T08:12:15.879Z,23.97
2023-05-05T08:14:44.816Z,24.30
2023-05-05T08:17:16.542Z,25.12
2023-05-05T08:19:48.291Z,24.85
2023-05-05T08:22:16.294Z,22.74
2023-05-05T08:24:59.912Z,23.16
2023-05-05T08:27:35.502Z,23.51
2023-05-05T08:30:04.214Z,22.80
2023-05-05T08:32:34.852Z,24.26
2023-05-05T08:35:23.673Z,23.59
2023-05-05T08:37:59.668Z,23.48
2023-05-05T08:40:43.773Z,24.47
2023-05-05T08:43:12.502Z,23.77
2023-05-05T08:45:42.745Z,23.44
2023-05-05T08:48:19.406Z,24.46
2023-05-05T08:50:57.345Z,23.36
2023-05-05T08:53:34.336Z,25.35
2023-05-05T08:56:04.324Z,24.78
2023-05-05T08:58:32.520Z,25.38
2023-05-05T09:01:02.607Z,24.14
2023-05-05T09:03:33.053Z,25.58
2023-05-05T09:09:04.150Z,24.82
2023-05-05T09:11:39.856Z,24.19
2023-05-05T09:14:15.346Z,26.51
2023-05-05T09:16:48.614Z,25.30
2023-05-05T09:19:23.571Z,24.16
2023-05-05T09:22:12.133Z,24.12
2023-05-05T09:24:59.568Z,25.01
2023-05-05T09:28:07.748Z,26.06
2023-05-05T09:30:39.841Z,25.20
2023-05-05T09:33:33.680Z,25.99
2023-05-05T09:40:15.063Z,26.14
2023-05-05T09:43:18.818Z,25.36
2023-05-05T09:49:04.405Z,27.24
2023-05-05T09:51:56.344Z,27.75
2023-05-05T09:54:29.341Z,27.57
2023-05-05T09:57:01.812Z,25.39
2023-05-05T09:59:29.528Z,24.85
2023-05-05T10:02:13.751Z,26.15
2023-05-05T10:04:44.338Z,25.65
2023-05-05T10:07:27.708Z,23.39
2023-05-05T10:09:58.623Z,24.07
2023-05-05T10:12:26.780Z,25.35
2023-05-05T10:14:55.248Z,26.32
2023-05-05T10:17:27.162Z,24.83
2023-05-05T10:19:59.230Z,24.74
2023-05-05T10:22:41.095Z,25.87
2023-05-05T10:25:10.862Z,25.00
2023-05-05T10:27:49.346Z,24.17
2023-05-05T10:30:27.021Z,23.65
2023-05-05T10:33:14.128Z,24.07
2023-05-05T10:35:52.130Z,24.31
2023-05-05T10:38:27.653Z,24.12
2023-05-05T10:40:57.913Z,23.48
2023-05-05T10:43:30.979Z,24.29
2023-05-05T10:45:59.021Z,24.17
2023-05-05T10:48:41.159Z,23.34
2023-05-05T10:51:15.432Z,22.68
2023-05-05T10:54:13.530Z,23.44
2023-05-05T10:56:42.073Z,22.69
2023-05-05T10:59:32.105Z,23.54
2023-05-05T11:02:01.063Z,24.69
2023-05-05T11:04:33.781Z,25.29
2023-05-05T11:07:16.211Z,25.57
2023-05-05T11:10:07.753Z,27.05
2023-05-05T11:12:54.493Z,28.37
2023-05-05T11:15:52.780Z,27.59
2023-05-05T11:18:37.302Z,28.04
2023-05-05T11:21:20.047Z,27.62
2023-05-05T11:23:50.263Z,28.36
2023-05-05T11:26:21.546Z,27.57
2023-05-05T11:29:01.762Z,26.91
2023-05-05T11:31:30.871Z,24.33
2023-05-05T11:34:20.850Z,26.17
2023-05-05T11:36:57.751Z,26.78
2023-05-05T11:39:31.680Z,26.47
2023-05-05T11:42:13.009Z,25.88
2023-05-05T11:44:46.991Z,26.20
2023-05-05T11:47:17.068Z,25.62
2023-05-05T11:49:50.197Z,24.77
2023-05-05T11:55:15.420Z,24.69
2023-05-05T11:57:59.636Z,24.29
2023-05-05T12:00:37.901Z,25.07
2023-05-05T12:03:07.289Z,24.70
2023-05-05T12:05:37.220Z,24.88
2023-05-05T12:08:12.190Z,24.29
2023-05-05T12:10:42.027Z,25.19
2023-05-05T12:13:22.034Z,24.87
2023-05-05T12:15:51.702Z,24.79
2023-05-05T12:18:20.847Z,24.12
2023-05-05T12:20:49.220Z,23.43
2023-05-05T12:23:19.532Z,23.00
2023-05-05T12:25:47.506Z,23.59
2023-05-05T12:28:15.710Z,24.10
2023-05-05T12:30:45.217Z,24.76
2023-05-05T12:33:12.930Z,24.81
2023-05-05T12:35:43.659Z,25.32
2023-05-05T12:38:14.496Z,25.27
2023-05-05T12:40:45.119Z,24.53
2023-05-05T12:43:32.235Z,24.91
2023-05-05T12:46:10.347Z,25.27
2023-05-05T12:48:48.394Z,25.28
2023-05-05T12:51:18.573Z,24.85
2023-05-05T12:53:50.759Z,25.68
2023-05-05T12:56:38.765Z,26.03
2023-05-05T12:59:07.895Z,25.43
2023-05-05T13:01:36.601Z,25.20
2023-05-05T13:04:07.940Z,25.03
2023-05-05T13:06:36.360Z,24.41
2023-05-05T13:09:05.142Z,25.16
2023-05-05T13:11:37.529Z,25.01
2023-05-05T13:14:08.760Z,25.07
2023-05-05T13:17:35.934Z,24.52
2023-05-05T13:20:10.346Z,24.58
2023-05-05T13:26:26.224Z,26.27
2023-05-05T13:29:49.526Z,26.76
2023-05-05T13:33:39.255Z,25.25
2023-05-05T13:36:27.800Z,25.53
2023-05-05T14:02:27.869Z,25.43
2023-05-05T14:05:57.363Z,25.04
2023-05-05T14:12:43.570Z,25.46
2023-05-05T14:16:09.892Z,26.13
2023-05-05T14:22:31.154Z,26.38
2023-05-05T14:32:30.279Z,26.05
2023-05-05T14:36:03.612Z,25.32
2023-05-05T14:40:04.272Z,24.74
2023-05-05T14:46:01.352Z,24.21
2023-05-05T14:48:58.245Z,24.37
2023-05-05T15:03:39.027Z,24.63
2023-05-05T15:11:14.173Z,25.44
2023-05-05T15:21:14.448Z,24.96
2023-05-05T15:29:05.456Z,23.99
2023-05-05T15:34:42.319Z,24.10
2023-05-05T15:37:16.617Z,24.29
2023-05-05T15:39:44.703Z,24.72
2023-05-05T15:42:33.745Z,24.17
2023-05-05T15:45:18.200Z,24.62
2023-05-05T15:50:49.918Z,23.41
2023-05-05T15:53:45.255Z,23.22
2023-05-05T15:56:16.783Z,23.92
2023-05-05T15:58:49.029Z,23.72
2023-05-05T16:07:19.793Z,22.77
2023-05-05T16:09:58.307Z,23.63
2023-05-05T16:12:32.489Z,23.37
2023-05-05T16:15:01.056Z,23.52
2023-05-05T16:17:41.650Z,23.25
2023-05-05T16:20:31.819Z,23.25
2023-05-05T16:23:04.157Z,22.95
2023-05-05T16:28:18.960Z,23.71
2023-05-05T16:31:29.237Z,23.91
2023-05-05T16:34:26.239Z,24.09
2023-05-05T16:37:02.878Z,23.55
2023-05-05T16:40:31.515Z,23.11
2023-05-05T16:43:30.360Z,23.23
2023-05-05T16:53:00.660Z,22.86
2023-05-05T16:55:42.466Z,23.02
2023-05-05T16:58:17.051Z,22.24
2023-05-05T17:07:20.087Z,21.89
2023-05-05T17:09:47.968Z,21.75
2023-05-05T17:13:16.618Z,21.05
2023-05-05T17:20:18.590Z,20.53
2023-05-05T17:27:36.431Z,19.76
2023-05-05T17:30:27.657Z,19.95
2023-05-05T17:33:08.601Z,19.95
2023-05-05T17:36:24.150Z,19.82
2023-05-05T17:46:57.240Z,19.07
2023-05-05T18:05:06.630Z,16.15
2023-05-05T18:13:27.340Z,15.52
2023-05-05T18:17:05.090Z,14.61
2023-05-05T18:31:10.296Z,14.19
2023-05-05T18:36:33.833Z,13.42
2023-05-05T18:39:24.340Z,13.45
2023-05-05T18:42:01.590Z,13.18
2023-05-05T18:47:41.802Z,12.95
2023-05-05T18:59:05.179Z,13.54
2023-05-05T19:14:50.036Z,12.68
2023-05-05T19:46:03.776Z,12.19
2023-05-05T19:50:23.317Z,12.18
2023-05-05T19:57:02.564Z,11.58
2023-05-05T20:00:15.429Z,11.77
2023-05-05T20:02:56.841Z,11.49
2023-05-05T20:06:06.494Z,11.39
2023-05-05T20:09:06.714Z,11.47
2023-05-05T20:13:05.185Z,11.42
2023-05-05T20:17:10.291Z,11.46
2023-05-05T20:20:46.541Z,11.14
2023-05-05T20:28:06.640Z,11.12
2023-05-05T20:32:08.900Z,10.81
2023-05-05T20:43:56.462Z,11.23
2023-05-05T20:46:46.823Z,10.78
2023-05-05T20:49:14.588Z,10.93
2023-05-05T20:51:42.675Z,11.06
2023-05-05T20:55:19.758Z,10.90
2023-05-05T21:02:21.235Z,10.80
2023-05-05T21:09:40.130Z,10.58
2023-05-05T21:13:34.661Z,11.62
2023-05-05T21:17:13.489Z,10.50
2023-05-05T21:20:43.344Z,10.35
2023-05-05T21:23:30.879Z,10.23
2023-05-05T21:30:13.590Z,10.19
2023-05-05T21:37:21.419Z,10.00
2023-05-05T21:39:49.830Z,10.02
2023-05-05T21:43:05.529Z,10.46
2023-05-05T21:45:50.345Z,9.86
2023-05-05T21:53:10.767Z,10.04
2023-05-05T21:59:43.695Z,10.78
2023-05-05T22:06:45.325Z,10.33
2023-05-05T22:09:39.842Z,9.72
2023-05-05T22:16:27.414Z,10.50
2023-05-05T22:20:03.862Z,9.86
2023-05-05T22:30:25.519Z,9.98
2023-05-05T22:32:54.425Z,9.47
2023-05-05T22:35:29.038Z,10.01
2023-05-05T22:38:28.510Z,9.56
2023-05-05T22:44:57.701Z,9.62
2023-05-05T22:51:30.439Z,9.52
2023-05-05T22:55:15.710Z,9.76
2023-05-05T22:57:52.044Z,9.30
2023-05-05T23:01:19.717Z,9.37
2023-05-05T23:05:13.862Z,9.62
2023-05-05T23:07:41.954Z,9.69
2023-05-05T23:10:09.930Z,9.55
2023-05-05T23:13:08.551Z,9.54
2023-05-05T23:16:34.761Z,9.44
2023-05-05T23:20:03.099Z,9.22
2023-05-05T23:23:09.596Z,9.02
2023-05-05T23:26:18.123Z,9.87
2023-05-05T23:29:53.908Z,9.52
2023-05-05T23:32:43.357Z,8.99
2023-05-05T23:36:55.649Z,9.34
2023-05-05T23:40:48.766Z,9.38
2023-05-05T23:46:50.062Z,9.18
2023-05-05T23:52:30.301Z,9.57
2023-05-05T23:55:22.229Z,9.51
